Time;durP1;ratioP1;P1;durP2;ratioP2;P2;SDS_P1;SDS_P2;PMS_P1;PMS_P2;Temp;Humidity;BMP_temperature;BMP_pressure;BME280_temperature;BME280_humidity;BME280_pressure;Samples;Min_cycle;Max_cycle;Signal;HPM_P1;HPM_P2
2021/12/26 00:00:45;;;;;;;2.45;2.05;;;-6.60;99.90;;;;;;5054985;28;20028;-68
2021/12/26 00:03:11;;;;;;;4.07;2.40;;;-6.60;99.90;;;;;;5053616;28;20037;-68
2021/12/26 00:05:37;;;;;;;6.00;2.35;;;-6.60;99.90;;;;;;5054717;28;20029;-68
2021/12/26 00:08:03;;;;;;;6.13;2.60;;;-6.60;99.90;;;;;;5054712;28;20067;-68
2021/12/26 00:10:29;;;;;;;2.72;2.38;;;-6.60;99.90;;;;;;5054782;28;20023;-68
2021/12/26 00:12:57;;;;;;;3.67;2.20;;;-6.60;99.90;;;;;;5054376;28;20104;-68
2021/12/26 00:15:23;;;;;;;5.07;2.08;;;-6.60;99.90;;;;;;5055031;28;20033;-68
2021/12/26 00:17:49;;;;;;;4.15;2.42;;;-6.60;99.90;;;;;;5054769;28;20053;-68
2021/12/26 00:20:16;;;;;;;4.10;2.55;;;-6.50;99.90;;;;;;5054561;28;20064;-68
2021/12/26 00:22:43;;;;;;;4.63;2.08;;;-6.50;99.90;;;;;;5054536;28;20388;-69
2021/12/26 00:25:10;;;;;;;2.92;2.10;;;-6.50;99.90;;;;;;5054531;28;20504;-68
2021/12/26 00:27:37;;;;;;;2.80;2.30;;;-6.50;99.90;;;;;;5054462;28;20401;-68
2021/12/26 00:30:13;;;;;;;3.65;2.30;;;-6.40;99.90;;;;;;5054346;28;20500;-68
2021/12/26 00:32:40;;;;;;;2.10;1.90;;;-6.40;99.90;;;;;;5054325;28;20048;-68
2021/12/26 00:35:07;;;;;;;3.22;2.22;;;-6.30;99.90;;;;;;5054196;28;20055;-68
2021/12/26 00:37:33;;;;;;;10.18;3.05;;;-6.30;99.90;;;;;;5054094;28;20021;-68
2021/12/26 00:39:59;;;;;;;3.58;2.30;;;-6.20;99.90;;;;;;5054085;28;20032;-70
2021/12/26 00:42:24;;;;;;;3.70;2.70;;;-6.20;99.90;;;;;;5053934;28;20033;-71
2021/12/26 00:44:50;;;;;;;3.63;2.28;;;-6.10;99.90;;;;;;5053936;28;20025;-71
2021/12/26 00:47:16;;;;;;;3.13;2.33;;;-6.10;99.90;;;;;;5053988;28;20025;-71
2021/12/26 00:49:42;;;;;;;3.20;2.20;;;-6.10;99.90;;;;;;5053828;28;20489;-71
2021/12/26 00:52:08;;;;;;;3.92;2.08;;;-6.20;99.90;;;;;;5053819;28;20507;-69
2021/12/26 00:54:35;;;;;;;2.95;2.53;;;-6.20;99.90;;;;;;5053251;28;20033;-68
2021/12/26 00:57:02;;;;;;;7.57;2.20;;;-6.20;99.90;;;;;;5053654;28;20065;-69
2021/12/26 00:59:28;;;;;;;4.07;2.17;;;-6.20;99.90;;;;;;5053856;28;20400;-68
2021/12/26 01:01:56;;;;;;;5.97;2.13;;;-6.30;99.90;;;;;;5053550;28;20053;-69
2021/12/26 01:04:23;;;;;;;5.65;2.50;;;-6.40;99.90;;;;;;5053520;28;20067;-69
2021/12/26 01:06:49;;;;;;;3.42;2.35;;;-6.40;99.90;;;;;;5053847;28;20039;-69
2021/12/26 01:09:21;;;;;;;3.28;2.22;;;-6.30;99.90;;;;;;5053785;28;20025;-69
2021/12/26 01:11:52;;;;;;;2.97;2.40;;;-6.30;99.90;;;;;;5048010;28;20465;-69
2021/12/26 01:14:24;;;;;;;;;;;-6.30;99.90;;;;;;5053815;28;20080;-69
2021/12/26 01:17:00;;;;;;;2.08;1.83;;;-6.30;99.90;;;;;;5053307;28;19909;-68
2021/12/26 01:19:32;;;;;;;3.67;2.15;;;-6.40;99.90;;;;;;5053391;28;20501;-68
2021/12/26 01:21:58;;;;;;;3.22;2.20;;;-6.40;99.90;;;;;;5051833;28;20567;-69
2021/12/26 01:24:24;;;;;;;3.75;2.42;;;-6.40;99.90;;;;;;5053233;28;20021;-68
2021/12/26 01:26:49;;;;;;;3.10;2.28;;;-6.40;99.90;;;;;;5051771;28;20504;-68
2021/12/26 01:29:15;;;;;;;3.15;2.03;;;-6.30;99.90;;;;;;5053382;28;20032;-69
2021/12/26 01:31:41;;;;;;;4.20;2.60;;;-6.30;99.90;;;;;;5053042;28;20025;-68
2021/12/26 01:34:07;;;;;;;3.70;2.17;;;-6.30;99.90;;;;;;5052954;28;20040;-68
2021/12/26 01:36:34;;;;;;;2.55;2.22;;;-6.40;99.90;;;;;;5053139;28;20021;-68
2021/12/26 01:39:02;;;;;;;4.13;2.30;;;-6.40;99.90;;;;;;5053189;28;20044;-68
2021/12/26 01:41:28;;;;;;;2.38;2.03;;;-6.40;99.90;;;;;;5053236;28;20021;-68
2021/12/26 01:43:59;;;;;;;5.68;2.60;;;-6.40;99.90;;;;;;5052810;28;20021;-68
2021/12/26 01:46:27;;;;;;;3.45;2.58;;;-6.30;99.90;;;;;;5053354;28;20032;-67
2021/12/26 01:49:10;;;;;;;3.70;2.47;;;-6.30;99.90;;;;;;5052787;28;20026;-68
2021/12/26 01:51:36;;;;;;;3.35;2.47;;;-6.20;99.90;;;;;;5052875;28;20024;-68
2021/12/26 01:54:06;;;;;;;3.30;2.25;;;-6.10;99.90;;;;;;5052566;28;20064;-68
2021/12/26 01:56:33;;;;;;;4.03;2.28;;;-6.10;99.90;;;;;;5052529;28;20036;-68
2021/12/26 01:58:59;;;;;;;6.97;2.83;;;-6.10;99.90;;;;;;5052710;28;20041;-68
2021/12/26 02:01:26;;;;;;;3.08;2.17;;;-6.10;99.90;;;;;;5052581;28;20473;-67
2021/12/26 02:03:52;;;;;;;3.20;2.25;;;-6.10;99.90;;;;;;5052289;28;20430;-67
2021/12/26 02:06:18;;;;;;;2.45;2.25;;;-6.10;99.90;;;;;;5051781;28;20056;-67
2021/12/26 02:08:44;;;;;;;2.90;2.63;;;-6.20;99.90;;;;;;5052505;28;20385;-67
2021/12/26 02:11:10;;;;;;;2.92;2.33;;;-6.20;99.90;;;;;;5052515;28;20025;-67
2021/12/26 02:13:39;;;;;;;2.83;2.30;;;-6.10;99.90;;;;;;5052137;28;20599;-67
2021/12/26 02:16:10;;;;;;;2.65;2.08;;;-6.10;99.90;;;;;;5052382;28;20079;-67
2021/12/26 02:18:36;;;;;;;3.20;2.30;;;-6.20;99.90;;;;;;5052317;28;20028;-67
2021/12/26 02:23:43;;;;;;;3.35;2.42;;;-6.10;99.90;;;;;;5052166;28;20031;-67
2021/12/26 02:55:16;;;;;;;2.63;2.38;;;-6.80;99.90;;;;;;5051992;28;20041;-67
2021/12/26 02:57:49;;;;;;;3.92;2.58;;;-6.90;99.90;;;;;;5051389;28;20107;-67
2021/12/26 03:00:18;;;;;;;6.05;3.20;;;-6.90;99.90;;;;;;5052202;28;20040;-67
2021/12/26 03:02:48;;;;;;;4.68;2.65;;;-6.90;99.90;;;;;;5051691;28;20028;-67
2021/12/26 03:05:15;;;;;;;5.47;3.08;;;-6.90;99.90;;;;;;5050699;28;20024;-67
2021/12/26 03:07:42;;;;;;;5.05;2.30;;;-6.90;99.90;;;;;;5051705;28;20507;-67
2021/12/26 03:10:16;;;;;;;6.95;3.00;;;-7.00;99.90;;;;;;5051791;28;20033;-67
2021/12/26 03:12:42;;;;;;;5.53;2.75;;;-7.10;99.90;;;;;;5051417;28;20116;-66
2021/12/26 03:15:11;;;;;;;3.45;2.42;;;-7.00;99.90;;;;;;5051743;28;20100;-66
2021/12/26 03:17:38;;;;;;;4.40;2.47;;;-7.00;99.90;;;;;;5052313;28;20040;-66
2021/12/26 03:20:12;;;;;;;6.35;2.75;;;-7.10;99.90;;;;;;5055637;28;20021;-66
2021/12/26 03:22:39;;;;;;;4.20;2.60;;;-7.20;99.90;;;;;;5055367;28;20124;-66
2021/12/26 03:25:09;;;;;;;3.55;2.70;;;-7.20;99.90;;;;;;5055652;28;20032;-66
2021/12/26 03:27:35;;;;;;;4.93;2.67;;;-7.20;99.90;;;;;;5055305;28;20027;-66
2021/12/26 03:30:01;;;;;;;2.92;2.22;;;-7.20;99.90;;;;;;5055508;28;20029;-66
2021/12/26 03:32:26;;;;;;;3.17;2.72;;;-7.30;99.90;;;;;;5055244;28;20384;-66
2021/12/26 03:34:52;;;;;;;3.50;2.55;;;-7.30;99.90;;;;;;5055297;28;20037;-66
2021/12/26 03:37:18;;;;;;;8.25;3.20;;;-7.30;99.90;;;;;;5055358;28;20032;-68
2021/12/26 03:39:44;;;;;;;5.93;2.92;;;-7.20;99.90;;;;;;5055346;28;20036;-68
2021/12/26 03:42:11;;;;;;;9.07;3.25;;;-7.30;99.90;;;;;;5054038;28;20485;-68
2021/12/26 03:44:36;;;;;;;4.25;2.80;;;-7.20;99.90;;;;;;5055235;28;20104;-68
2021/12/26 03:47:03;;;;;;;7.55;3.38;;;-7.20;99.90;;;;;;5054952;28;20061;-68
2021/12/26 03:49:29;;;;;;;4.32;2.60;;;-7.30;99.90;;;;;;5055269;28;20045;-66
2021/12/26 03:51:54;;;;;;;7.50;3.08;;;-7.30;99.90;;;;;;5055072;28;20056;-66
2021/12/26 03:54:20;;;;;;;4.85;3.05;;;-7.30;99.90;;;;;;5054890;28;20061;-66
2021/12/26 03:56:46;;;;;;;5.05;2.97;;;-7.30;99.90;;;;;;5053407;28;20404;-66
2021/12/26 03:59:12;;;;;;;6.43;3.30;;;-7.30;99.90;;;;;;5054870;28;20496;-66
2021/12/26 04:01:38;;;;;;;4.32;2.85;;;-7.30;99.90;;;;;;5054768;28;20021;-66
2021/12/26 04:04:04;;;;;;;4.90;3.15;;;-7.30;99.90;;;;;;5054748;28;20117;-67
2021/12/26 04:06:31;;;;;;;3.38;2.70;;;-7.40;99.90;;;;;;5054657;28;20025;-67
2021/12/26 04:08:57;;;;;;;4.45;2.88;;;-7.40;99.90;;;;;;5054643;28;20116;-67
2021/12/26 04:11:23;;;;;;;5.38;3.13;;;-7.50;99.90;;;;;;5054730;28;20060;-67
2021/12/26 04:13:49;;;;;;;6.70;3.35;;;-7.60;99.90;;;;;;5054449;28;20036;-67
2021/12/26 04:16:15;;;;;;;5.90;3.13;;;-7.60;99.90;;;;;;5054593;28;20028;-66
2021/12/26 04:18:41;;;;;;;6.55;3.03;;;-7.50;99.90;;;;;;5054667;28;20071;-67
2021/12/26 04:21:06;;;;;;;4.97;3.00;;;-7.50;99.90;;;;;;5054846;28;20450;-67
2021/12/26 04:23:33;;;;;;;4.97;2.95;;;-7.50;99.90;;;;;;5053096;28;20025;-67
2021/12/26 04:25:59;;;;;;;4.65;3.08;;;-7.40;99.90;;;;;;5054814;28;20040;-67
2021/12/26 04:28:25;;;;;;;4.40;3.08;;;-7.40;99.90;;;;;;5054438;28;20025;-67
2021/12/26 04:30:51;;;;;;;6.70;3.35;;;-7.40;99.90;;;;;;5053504;28;20040;-67
2021/12/26 04:33:16;;;;;;;3.70;2.85;;;-7.30;99.90;;;;;;5054496;28;20029;-67
2021/12/26 04:35:42;;;;;;;6.78;3.05;;;-7.30;99.90;;;;;;5054169;28;20025;-67
2021/12/26 04:38:08;;;;;;;6.18;3.80;;;-7.30;99.90;;;;;;5054197;28;20033;-67
2021/12/26 04:40:33;;;;;;;4.57;3.10;;;-7.30;99.90;;;;;;5054060;28;20082;-66
2021/12/26 04:42:59;;;;;;;4.97;2.97;;;-7.40;99.90;;;;;;5052845;28;20029;-67
2021/12/26 04:45:26;;;;;;;5.70;3.20;;;-7.50;99.90;;;;;;5054089;28;20028;-66
2021/12/26 04:47:52;;;;;;;4.80;3.15;;;-7.60;99.90;;;;;;5052582;28;20029;-66
2021/12/26 04:50:24;;;;;;;5.50;3.35;;;-7.70;99.90;;;;;;5054279;28;20024;-66
2021/12/26 04:52:52;;;;;;;6.18;3.15;;;-7.90;99.90;;;;;;5052235;28;20362;-67
2021/12/26 04:55:22;;;;;;;7.20;3.50;;;-8.00;99.90;;;;;;5053892;28;20108;-66
2021/12/26 04:57:49;;;;;;;6.70;3.47;;;-8.00;99.90;;;;;;5053602;28;20045;-67
2021/12/26 05:00:19;;;;;;;4.25;3.10;;;-8.00;99.90;;;;;;5053838;28;20482;-66
2021/12/26 05:02:46;;;;;;;5.95;2.97;;;-8.00;99.90;;;;;;5054162;28;20370;-67
2021/12/26 05:05:12;;;;;;;4.65;3.22;;;-8.10;99.90;;;;;;5053700;28;20029;-67
2021/12/26 05:07:40;;;;;;;7.13;3.22;;;-8.00;99.90;;;;;;5053581;28;20541;-66
2021/12/26 05:10:07;;;;;;;8.13;4.00;;;-7.90;99.90;;;;;;5053586;28;20021;-67
2021/12/26 05:12:34;;;;;;;7.15;3.58;;;-7.80;99.90;;;;;;5051968;28;20056;-67
2021/12/26 05:15:01;;;;;;;5.20;3.40;;;-7.80;99.90;;;;;;5053513;28;20032;-67
2021/12/26 05:17:27;;;;;;;5.07;3.20;;;-7.70;99.90;;;;;;5053517;28;20016;-67
2021/12/26 05:19:53;;;;;;;6.18;3.22;;;-7.70;99.90;;;;;;5053270;28;20021;-67
2021/12/26 05:22:20;;;;;;;5.43;3.05;;;-7.70;99.90;;;;;;5053569;28;20047;-67
2021/12/26 05:24:46;;;;;;;3.67;2.67;;;-7.70;99.90;;;;;;5053351;28;20428;-67
2021/12/26 05:27:11;;;;;;;6.18;3.33;;;-7.90;99.90;;;;;;5053317;28;20075;-67
2021/12/26 05:29:37;;;;;;;8.60;3.78;;;-8.00;99.90;;;;;;5053147;28;20021;-66
2021/12/26 05:32:03;;;;;;;5.70;3.28;;;-8.00;99.90;;;;;;5053247;28;20029;-67
2021/12/26 05:34:29;;;;;;;5.50;3.40;;;-8.10;99.90;;;;;;5053243;28;20087;-66
2021/12/26 05:36:55;;;;;;;7.13;3.47;;;-8.20;99.90;;;;;;5052995;28;20029;-64
2021/12/26 05:39:20;;;;;;;5.22;3.13;;;-8.20;99.90;;;;;;5053033;28;20043;-65
2021/12/26 05:41:46;;;;;;;7.18;3.22;;;-8.30;99.90;;;;;;5053113;28;20021;-65
2021/12/26 05:44:12;;;;;;;5.03;3.03;;;-7.90;99.90;;;;;;5052939;28;20036;-65
2021/12/26 05:46:37;;;;;;;4.95;3.38;;;-7.10;99.90;;;;;;5052237;28;20028;-67
2021/12/26 05:49:04;;;;;;;4.95;3.53;;;-7.20;99.90;;;;;;5052533;28;20063;-66
2021/12/26 05:51:30;;;;;;;5.05;3.40;;;-7.50;99.90;;;;;;5052297;28;20021;-67
2021/12/26 05:53:57;;;;;;;5.38;3.15;;;-7.70;99.90;;;;;;5051991;28;20045;-67
2021/12/26 05:56:23;;;;;;;4.32;2.95;;;-7.90;99.90;;;;;;5051486;28;20017;-67
2021/12/26 05:58:48;;;;;;;6.57;3.97;;;-8.10;99.90;;;;;;5051661;28;20442;-67
2021/12/26 06:01:14;;;;;;;4.95;2.75;;;-8.20;99.90;;;;;;5051976;28;20103;-66
2021/12/26 06:03:40;;;;;;;5.75;3.08;;;-8.30;99.90;;;;;;5050741;28;20033;-68
2021/12/26 06:06:06;;;;;;;5.07;3.55;;;-8.40;99.90;;;;;;5051952;28;20064;-64
2021/12/26 06:08:32;;;;;;;4.93;3.20;;;-8.40;99.90;;;;;;5051871;28;20384;-64
2021/12/26 06:10:58;;;;;;;5.95;2.72;;;-8.40;99.90;;;;;;5051588;28;20021;-64
2021/12/26 06:13:23;;;;;;;4.70;3.08;;;-8.50;99.70;;;;;;5052511;28;20029;-64
2021/12/26 06:15:49;;;;;;;5.88;3.00;;;-8.60;99.40;;;;;;5051377;28;20055;-64
2021/12/26 06:18:15;;;;;;;6.47;3.15;;;-8.60;98.70;;;;;;5051973;28;20029;-64
2021/12/26 06:20:41;;;;;;;5.22;3.17;;;-8.70;98.40;;;;;;5052444;28;20017;-66
2021/12/26 06:23:07;;;;;;;8.02;3.53;;;-8.70;97.90;;;;;;5052087;28;20088;-64
2021/12/26 06:25:32;;;;;;;5.72;3.55;;;-8.80;98.40;;;;;;5052347;28;20103;-64
2021/12/26 06:27:58;;;;;;;5.25;3.22;;;-8.80;97.90;;;;;;5051754;28;20017;-64
2021/12/26 06:30:24;;;;;;;6.10;3.28;;;-8.30;99.90;;;;;;5050562;28;20033;-64
2021/12/26 06:32:50;;;;;;;5.38;2.97;;;-8.30;99.90;;;;;;5052301;28;20021;-64
2021/12/26 06:35:15;;;;;;;7.78;3.20;;;-8.50;99.90;;;;;;5052344;28;20044;-67
2021/12/26 06:37:42;;;;;;;6.13;3.45;;;-8.60;99.90;;;;;;5052013;28;20013;-66
2021/12/26 06:40:10;;;;;;;4.97;3.10;;;-8.80;99.30;;;;;;5052300;28;20025;-66
2021/12/26 06:42:41;;;;;;;5.60;3.42;;;-9.00;97.80;;;;;;5051935;28;20108;-66
2021/12/26 06:45:09;;;;;;;3.83;2.90;;;-9.10;96.30;;;;;;5050803;28;20033;-64
2021/12/26 06:47:36;;;;;;;5.53;3.00;;;-9.10;99.90;;;;;;5052017;28;20484;-66
2021/12/26 06:50:02;;;;;;;6.47;3.38;;;-8.50;99.90;;;;;;5052205;28;20032;-66
2021/12/26 06:52:28;;;;;;;6.20;3.80;;;-8.70;99.90;;;;;;5050242;28;20094;-66
2021/12/26 06:54:54;;;;;;;7.53;3.88;;;-8.90;99.90;;;;;;5043038;28;20075;-67
2021/12/26 06:57:19;;;;;;;5.57;3.33;;;-9.10;99.90;;;;;;5035440;28;20095;-67
2021/12/26 06:59:45;;;;;;;5.60;3.47;;;-9.30;98.40;;;;;;5032113;28;20535;-68
2021/12/26 07:02:11;;;;;;;5.60;3.00;;;-9.40;97.70;;;;;;5031960;28;20109;-66
2021/12/26 07:04:37;;;;;;;7.68;3.45;;;-9.50;96.30;;;;;;5031666;28;20021;-66
2021/12/26 07:07:03;;;;;;;5.93;3.72;;;-9.60;96.00;;;;;;5031903;28;20119;-66
2021/12/26 07:09:28;;;;;;;7.88;2.90;;;-9.70;96.00;;;;;;5031844;28;20060;-65
2021/12/26 07:11:54;;;;;;;4.75;2.90;;;-9.80;95.60;;;;;;5031790;28;20040;-65
2021/12/26 07:14:20;;;;;;;4.28;2.80;;;-9.80;95.10;;;;;;5031808;28;20043;-66
2021/12/26 07:16:45;;;;;;;7.32;3.28;;;-9.90;95.20;;;;;;5039891;28;20032;-66
2021/12/26 07:19:11;;;;;;;4.95;3.20;;;-9.90;94.60;;;;;;5050018;28;20060;-66
2021/12/26 07:21:37;;;;;;;4.68;2.80;;;-10.00;94.20;;;;;;5048331;28;20452;-66
2021/12/26 07:24:04;;;;;;;5.38;3.13;;;-10.00;94.50;;;;;;5036711;28;20081;-68
2021/12/26 07:26:30;;;;;;;5.20;2.95;;;-10.10;94.00;;;;;;5031771;28;20021;-67
2021/12/26 07:28:55;;;;;;;5.00;2.83;;;-10.20;93.30;;;;;;5033936;28;20030;-64
2021/12/26 07:31:21;;;;;;;4.10;2.60;;;-10.30;93.50;;;;;;5031918;28;20595;-65
2021/12/26 07:33:47;;;;;;;5.97;2.78;;;-10.30;93.60;;;;;;5036105;28;20095;-65
2021/12/26 07:36:13;;;;;;;3.45;2.72;;;-10.40;93.40;;;;;;5046200;28;20477;-67
2021/12/26 07:38:39;;;;;;;4.63;2.97;;;-10.40;93.20;;;;;;5048135;28;20033;-67
2021/12/26 07:41:04;;;;;;;5.25;3.20;;;-10.50;93.00;;;;;;5051377;28;20515;-67
2021/12/26 07:43:30;;;;;;;4.07;3.22;;;-10.50;92.90;;;;;;5033424;28;20533;-65
2021/12/26 07:45:56;;;;;;;4.22;2.60;;;-10.50;92.70;;;;;;5050925;28;20056;-66
2021/12/26 07:48:21;;;;;;;5.68;3.00;;;-10.60;92.70;;;;;;5051259;28;20354;-67
2021/12/26 07:50:47;;;;;;;5.85;3.13;;;-10.70;92.40;;;;;;5051144;28;20389;-66
2021/12/26 07:53:13;;;;;;;6.00;3.22;;;-10.80;92.50;;;;;;5051146;28;20060;-66
2021/12/26 07:55:39;;;;;;;4.72;3.10;;;-10.90;92.80;;;;;;5050655;28;20025;-66
2021/12/26 07:58:05;;;;;;;4.82;2.90;;;-10.90;92.90;;;;;;5051199;28;20516;-66
2021/12/26 08:00:31;;;;;;;5.93;3.00;;;-10.90;93.10;;;;;;5051371;28;20033;-67
2021/12/26 08:02:58;;;;;;;6.15;3.28;;;-10.90;93.10;;;;;;5045474;28;20030;-67
2021/12/26 08:05:25;;;;;;;5.65;3.10;;;-10.80;92.90;;;;;;5052620;28;20025;-66
2021/12/26 08:07:51;;;;;;;8.52;3.53;;;-10.90;92.70;;;;;;5040727;28;20377;-66
2021/12/26 08:10:17;;;;;;;5.47;3.42;;;-10.90;92.60;;;;;;5036504;28;20057;-66
2021/12/26 08:12:43;;;;;;;4.60;2.90;;;-11.00;92.80;;;;;;5039793;28;20551;-66
2021/12/26 08:15:09;;;;;;;5.90;3.08;;;-11.00;92.80;;;;;;5034830;28;20069;-68
2021/12/26 08:17:35;;;;;;;6.47;3.60;;;-11.00;93.00;;;;;;5034974;28;20030;-67
2021/12/26 08:20:03;;;;;;;8.05;3.20;;;-11.10;93.00;;;;;;5043676;28;20038;-66
2021/12/26 08:22:28;;;;;;;4.65;3.33;;;-11.10;92.50;;;;;;5054288;28;20118;-66
2021/12/26 08:24:54;;;;;;;5.80;3.28;;;-11.10;92.20;;;;;;5039823;28;20053;-67
2021/12/26 08:27:20;;;;;;;5.63;3.65;;;-11.10;92.20;;;;;;5034690;28;20029;-66
2021/12/26 08:29:47;;;;;;;7.00;3.50;;;-11.10;92.60;;;;;;5034467;28;20026;-66
2021/12/26 08:32:15;;;;;;;5.32;3.10;;;-11.10;92.70;;;;;;5034508;28;20021;-67
2021/12/26 08:34:43;;;;;;;5.20;3.33;;;-11.20;92.80;;;;;;5034561;28;20041;-66
2021/12/26 08:37:09;;;;;;;4.70;3.40;;;-11.20;92.90;;;;;;5033287;28;20049;-66
2021/12/26 08:39:38;;;;;;;4.18;2.78;;;-11.20;92.60;;;;;;5034426;28;20036;-66
2021/12/26 08:42:06;;;;;;;5.50;3.05;;;-11.30;92.40;;;;;;5034527;28;20022;-66
2021/12/26 08:44:33;;;;;;;7.20;3.38;;;-11.40;92.30;;;;;;5033035;28;20505;-66
2021/12/26 08:46:59;;;;;;;6.70;2.92;;;-11.40;92.40;;;;;;5034230;28;20072;-67
2021/12/26 08:49:25;;;;;;;4.57;3.40;;;-11.40;93.00;;;;;;5034308;28;20049;-67
2021/12/26 08:51:51;;;;;;;6.82;3.67;;;-11.40;93.00;;;;;;5034075;28;20025;-66
2021/12/26 08:54:17;;;;;;;6.53;3.65;;;-11.40;93.10;;;;;;5033933;28;20090;-67
2021/12/26 08:56:43;;;;;;;7.78;3.50;;;-11.40;93.10;;;;;;5033842;28;20029;-65
2021/12/26 08:59:09;;;;;;;4.20;2.47;;;-11.20;99.90;;;;;;5034187;28;20029;-67
2021/12/26 09:01:35;;;;;;;4.80;2.35;;;-9.80;99.90;;;;;;5034006;28;20022;-66
2021/12/26 09:04:01;;;;;;;5.10;2.53;;;-5.70;99.90;;;;;;5033608;28;20051;-68
2021/12/26 09:06:27;;;;;;;6.90;3.45;;;-3.90;99.90;;;;;;5040779;28;20100;-66
2021/12/26 09:08:52;;;;;;;7.82;3.58;;;-2.40;99.90;;;;;;5053474;28;20036;-65
2021/12/26 09:11:18;;;;;;;7.30;4.63;;;-3.20;99.90;;;;;;5053615;28;20036;-65
2021/12/26 09:13:45;;;;;;;6.25;3.50;;;-0.40;99.90;;;;;;5053391;28;20042;-65
2021/12/26 09:16:11;;;;;;;7.20;3.45;;;-0.30;99.90;;;;;;5053167;28;20025;-64
2021/12/26 09:18:39;;;;;;;6.72;4.03;;;-2.30;99.90;;;;;;5053597;28;20648;-65
2021/12/26 09:21:04;;;;;;;5.82;3.45;;;-4.10;99.90;;;;;;5053276;28;20053;-65
2021/12/26 09:23:30;;;;;;;7.05;3.45;;;-5.40;99.90;;;;;;5053400;28;20060;-65
2021/12/26 09:25:56;;;;;;;6.32;3.63;;;-6.40;99.90;;;;;;5053458;28;20106;-65
2021/12/26 09:28:22;;;;;;;6.05;3.95;;;-7.20;99.90;;;;;;5053438;28;20029;-65
2021/12/26 09:30:48;;;;;;;6.03;3.70;;;-7.90;99.90;;;;;;5053232;28;20029;-64
2021/12/26 09:33:19;;;;;;;5.80;3.95;;;-8.50;99.90;;;;;;5053216;28;20021;-64
2021/12/26 09:35:46;;;;;;;9.68;3.72;;;-8.90;99.90;;;;;;5051805;28;20063;-64
2021/12/26 09:38:13;;;;;;;6.15;3.70;;;-9.10;99.90;;;;;;5053595;28;20362;-64
2021/12/26 09:40:38;;;;;;;7.50;3.85;;;-9.20;99.90;;;;;;5053164;28;20051;-65
2021/12/26 09:43:04;;;;;;;4.95;3.17;;;-9.30;99.90;;;;;;5053072;28;20024;-64
2021/12/26 09:45:30;;;;;;;6.57;4.32;;;-9.40;99.90;;;;;;5052962;28;20427;-64
2021/12/26 09:47:56;;;;;;;6.00;3.55;;;-9.40;99.90;;;;;;5052984;28;20029;-65
2021/12/26 09:50:22;;;;;;;8.30;3.72;;;-9.50;99.90;;;;;;5052923;28;20049;-64
2021/12/26 09:52:50;;;;;;;8.23;3.60;;;-9.60;99.90;;;;;;5052572;28;20111;-64
2021/12/26 09:55:16;;;;;;;6.57;3.95;;;-9.70;99.90;;;;;;5052819;28;20551;-64
2021/12/26 09:57:42;;;;;;;10.77;4.53;;;-9.70;99.90;;;;;;5052816;28;20072;-65
2021/12/26 10:00:18;;;;;;;8.73;4.20;;;-9.80;99.90;;;;;;5052772;28;20376;-64
2021/12/26 10:02:44;;;;;;;6.97;3.50;;;-10.00;99.90;;;;;;5052612;28;20070;-65
2021/12/26 10:05:09;;;;;;;8.80;3.58;;;-10.20;99.90;;;;;;5052705;28;20100;-65
2021/12/26 10:07:35;;;;;;;7.05;3.83;;;-10.60;99.90;;;;;;5052784;28;20035;-65
2021/12/26 10:10:06;;;;;;;9.48;3.97;;;-10.70;99.90;;;;;;5052366;28;20021;-65
2021/12/26 10:12:37;;;;;;;;;;;-10.80;99.90;;;;;;5053041;28;20147;-64
2021/12/26 10:15:04;;;;;;;7.65;3.53;;;-10.90;99.90;;;;;;5052407;28;20351;-65
2021/12/26 10:17:31;;;;;;;6.18;3.80;;;-11.00;99.90;;;;;;5052153;28;20029;-65
2021/12/26 10:20:16;;;;;;;6.65;3.85;;;-11.00;99.90;;;;;;5050704;28;20412;-65
2021/12/26 10:22:42;;;;;;;6.05;3.70;;;-11.10;99.90;;;;;;5047641;28;20488;-65
2021/12/26 10:25:10;;;;;;;6.35;3.80;;;-11.10;99.90;;;;;;5053412;28;20033;-62
2021/12/26 10:27:37;;;;;;;6.90;3.83;;;-11.20;99.90;;;;;;5054690;28;20028;-65
2021/12/26 10:30:05;;;;;;;6.22;3.97;;;-11.30;99.90;;;;;;5052462;28;20057;-65
2021/12/26 10:32:32;;;;;;;7.55;3.67;;;-11.40;99.90;;;;;;5052232;28;20018;-66
2021/12/26 10:35:00;;;;;;;7.10;3.50;;;-10.70;99.90;;;;;;5051929;28;20116;-66
2021/12/26 10:37:35;;;;;;;7.88;3.70;;;-9.50;99.90;;;;;;5052355;28;20071;-66
2021/12/26 10:40:10;;;;;;;11.15;4.55;;;-9.90;99.90;;;;;;5049358;28;20094;-66
2021/12/26 10:42:38;;;;;;;13.55;5.15;;;-10.40;99.90;;;;;;5034852;28;20052;-66
2021/12/26 10:45:08;;;;;;;12.15;5.07;;;-10.70;99.90;;;;;;5041556;28;20021;-66
2021/12/26 10:47:37;;;;;;;10.90;4.13;;;-10.90;99.90;;;;;;5040504;28;20018;-66
2021/12/26 10:50:07;;;;;;;6.45;3.90;;;-11.00;99.90;;;;;;5036297;28;20067;-68
2021/12/26 10:52:35;;;;;;;10.15;4.35;;;-11.10;99.90;;;;;;5035513;28;20075;-64
2021/12/26 10:55:12;;;;;;;5.32;3.42;;;-11.20;99.90;;;;;;5040701;28;21378;-65
2021/12/26 10:57:39;;;;;;;5.70;3.85;;;-11.40;99.90;;;;;;5041762;28;20122;-67
2021/12/26 11:00:14;;;;;;;9.75;4.35;;;-11.50;99.90;;;;;;5040179;28;20024;-66
2021/12/26 11:02:48;;;;;;;8.43;4.15;;;-11.50;99.90;;;;;;5040584;28;20048;-66
2021/12/26 11:05:18;;;;;;;5.22;3.40;;;-11.60;99.90;;;;;;5041410;28;20540;-66
2021/12/26 11:07:48;;;;;;;11.82;5.20;;;-11.60;99.90;;;;;;5043438;28;20040;-67
2021/12/26 11:10:20;;;;;;;9.02;4.68;;;-11.60;99.90;;;;;;5051766;28;20060;-67
2021/12/26 11:12:50;;;;;;;6.22;3.83;;;-11.60;99.90;;;;;;5051545;28;20036;-67
2021/12/26 11:15:18;;;;;;;5.75;3.65;;;-11.70;99.90;;;;;;5051702;28;20021;-67
2021/12/26 11:18:11;;;;;;;7.35;3.13;;;-11.70;99.90;;;;;;5051880;28;20226;-66
2021/12/26 11:20:41;;;;;;;7.18;3.08;;;-11.70;99.90;;;;;;5051473;28;20546;-66
2021/12/26 11:23:22;;;;;;;8.68;3.80;;;-11.80;99.90;;;;;;5051432;28;20040;-66
2021/12/26 11:25:54;;;;;;;5.97;3.78;;;-11.70;99.90;;;;;;5051511;28;20037;-66
2021/12/26 11:28:28;;;;;;;9.93;4.93;;;-11.60;99.90;;;;;;5051733;28;20049;-66
2021/12/26 11:31:25;;;;;;;8.00;4.22;;;-11.60;99.90;;;;;;5051556;28;20033;-66
2021/12/26 11:33:56;;;;;;;4.20;2.92;;;-11.60;99.90;;;;;;5050236;28;20087;-67
2021/12/26 11:36:23;;;;;;;11.43;3.90;;;-11.60;99.90;;;;;;5051594;28;20113;-67
2021/12/26 11:38:50;;;;;;;6.00;3.53;;;-11.70;99.90;;;;;;5052497;28;20052;-66
2021/12/26 11:41:41;;;;;;;6.18;3.47;;;-11.70;99.90;;;;;;5041531;28;20033;-66
2021/12/26 11:44:50;;;;;;;5.50;3.72;;;-11.70;99.90;;;;;;5045765;28;20029;-66
2021/12/26 11:47:22;;;;;;;10.27;2.95;;;-11.70;99.90;;;;;;5044246;28;20029;-67
2021/12/26 11:50:25;;;;;;;4.72;2.97;;;-11.80;99.90;;;;;;5045782;28;20120;-67
2021/12/26 11:53:12;;;;;;;6.75;3.28;;;-11.90;99.90;;;;;;5046223;28;20037;-67
2021/12/26 11:55:53;;;;;;;8.38;3.95;;;-11.90;99.90;;;;;;5045801;28;20051;-67
2021/12/26 11:58:18;;;;;;;6.22;3.10;;;-11.90;99.90;;;;;;5044192;28;20036;-67
2021/12/26 12:00:49;;;;;;;2.40;2.10;;;-11.90;99.90;;;;;;5042651;28;20390;-66
2021/12/26 12:03:24;;;;;;;4.72;3.08;;;-11.90;99.90;;;;;;5042336;28;20531;-66
2021/12/26 12:05:51;;;;;;;7.13;3.88;;;-11.90;99.90;;;;;;5044550;28;20017;-66
2021/12/26 12:08:23;;;;;;;6.18;3.97;;;-11.90;99.90;;;;;;5043571;28;20428;-65
2021/12/26 12:10:59;;;;;;;6.53;3.83;;;-11.80;99.90;;;;;;5044367;28;20092;-66
2021/12/26 12:13:25;;;;;;;8.50;3.58;;;-11.80;99.90;;;;;;5043474;28;20370;-67
2021/12/26 12:15:52;;;;;;;7.15;3.40;;;-11.80;99.90;;;;;;5044218;28;20023;-67
2021/12/26 12:18:22;;;;;;;9.45;3.83;;;-11.80;99.90;;;;;;5043168;28;20032;-67
2021/12/26 12:21:08;;;;;;;5.95;3.40;;;-11.80;99.90;;;;;;5044034;28;20021;-67
2021/12/26 12:23:37;;;;;;;5.63;3.47;;;-11.80;99.90;;;;;;5053476;28;20022;-67
2021/12/26 12:26:03;;;;;;;6.72;3.85;;;-11.80;99.90;;;;;;5054688;28;20385;-67
2021/12/26 12:28:40;;;;;;;7.25;4.05;;;-11.70;99.90;;;;;;5054541;28;20021;-68
2021/12/26 12:31:09;;;;;;;9.77;4.05;;;-11.70;99.90;;;;;;5054293;28;20044;-66
2021/12/26 12:33:36;;;;;;;7.80;3.78;;;-11.70;99.90;;;;;;5054209;28;20066;-68
2021/12/26 12:36:12;;;;;;;8.10;4.50;;;-11.70;99.90;;;;;;5053966;28;20066;-67
2021/12/26 12:38:45;;;;;;;8.45;4.05;;;-11.70;99.90;;;;;;5054321;28;20504;-66
2021/12/26 12:41:29;;;;;;;7.38;4.13;;;-11.60;99.90;;;;;;5054186;28;20021;-67
2021/12/26 12:44:03;;;;;;;6.13;3.88;;;-11.60;99.90;;;;;;5054166;28;20553;-65
2021/12/26 12:46:29;;;;;;;7.18;3.78;;;-11.60;99.90;;;;;;5054155;28;20472;-65
2021/12/26 12:49:07;;;;;;;7.38;3.33;;;-11.50;99.90;;;;;;5054421;28;20437;-66
2021/12/26 12:51:42;;;;;;;9.93;4.10;;;-11.00;99.90;;;;;;5053307;28;20380;-65
2021/12/26 12:54:22;;;;;;;8.70;3.97;;;-10.80;99.90;;;;;;5054123;28;20037;-65
2021/12/26 12:56:48;;;;;;;7.82;3.08;;;-11.10;99.90;;;;;;5053907;28;20574;-65
2021/12/26 13:01:49;;;;;;;5.13;3.20;;;-11.50;99.90;;;;;;5053850;28;20079;-66
2021/12/26 13:04:17;;;;;;;5.78;3.92;;;-11.60;99.90;;;;;;5043759;28;20028;-65
2021/12/26 13:06:51;;;;;;;6.30;3.80;;;-11.70;99.90;;;;;;5033895;28;20060;-65
2021/12/26 13:09:17;;;;;;;7.65;4.07;;;-11.70;99.90;;;;;;5033799;28;20021;-65
2021/12/26 13:11:43;;;;;;;7.78;4.13;;;-11.70;99.90;;;;;;5033667;28;20447;-65
2021/12/26 13:14:10;;;;;;;8.57;4.22;;;-11.60;99.90;;;;;;5033451;28;20033;-65
2021/12/26 13:16:35;;;;;;;9.40;4.15;;;-11.50;99.90;;;;;;5033830;28;20087;-66
2021/12/26 13:19:09;;;;;;;7.85;3.75;;;-11.50;99.90;;;;;;5033463;28;20026;-66
2021/12/26 13:21:35;;;;;;;8.57;4.22;;;-11.50;99.90;;;;;;5033724;28;20018;-66